Time;durP1;ratioP1;P1;durP2;ratioP2;P2;SDS_P1;SDS_P2;PMS_P1;PMS_P2;Temp;Humidity;BMP_temperature;BMP_pressure;BME280_temperature;BME280_humidity;BME280_pressure;Samples;Min_cycle;Max_cycle;Signal;HPM_P1;HPM_P2
2022/08/04 00:00:09;;;;;;;0.4;0.3;;;;;;;26.4;100.0;100990;;;;
2022/08/04 00:01:10;;;;;;;0.4;0.3;;;;;;;26.4;100.0;100990;;;;
2022/08/04 00:02:00;;;;;;;0.4;0.3;;;;;;;26.3;100.0;100980;;;;
2022/08/04 00:03:10;;;;;;;0.4;0.3;;;;;;;26.3;100.0;100980;;;;
2022/08/04 00:04:02;;;;;;;0.4;0.3;;;;;;;26.4;100.0;100980;;;;
2022/08/04 00:05:05;;;;;;;0.4;0.3;;;;;;;26.4;100.0;100980;;;;
2022/08/04 00:06:02;;;;;;;0.4;0.3;;;;;;;26.3;100.0;100980;;;;
2022/08/04 00:07:03;;;;;;;0.4;0.3;;;;;;;26.3;100.0;100980;;;;
2022/08/04 00:08:01;;;;;;;0.4;0.3;;;;;;;26.2;100.0;100980;;;;
2022/08/04 00:09:06;;;;;;;0.4;0.3;;;;;;;26.2;100.0;100980;;;;
2022/08/04 00:10:02;;;;;;;0.4;0.3;;;;;;;26.2;100.0;100970;;;;
2022/08/04 00:11:01;;;;;;;0.4;0.3;;;;;;;26.2;100.0;100970;;;;
2022/08/04 00:12:01;;;;;;;0.4;0.3;;;;;;;26.2;100.0;100970;;;;
2022/08/04 00:13:01;;;;;;;1.9;1.1;;;;;;;26.2;100.0;100970;;;;
2022/08/04 00:14:04;;;;;;;1.9;1.1;;;;;;;25.9;100.0;100970;;;;
2022/08/04 00:15:01;;;;;;;1.9;1.1;;;;;;;25.9;100.0;100970;;;;
2022/08/04 00:16:04;;;;;;;1.9;1.1;;;;;;;25.8;100.0;100970;;;;
2022/08/04 00:17:02;;;;;;;1.9;1.1;;;;;;;25.8;100.0;100970;;;;
2022/08/04 00:18:03;;;;;;;1.9;1.1;;;;;;;25.9;100.0;100970;;;;
2022/08/04 00:19:03;;;;;;;1.9;1.1;;;;;;;25.9;100.0;100970;;;;
2022/08/04 00:20:02;;;;;;;1.9;1.1;;;;;;;25.8;100.0;100970;;;;
2022/08/04 00:21:04;;;;;;;1.9;1.1;;;;;;;25.8;100.0;100970;;;;
2022/08/04 00:22:03;;;;;;;1.9;1.1;;;;;;;25.9;100.0;100980;;;;
2022/08/04 00:23:01;;;;;;;1.9;1.1;;;;;;;25.9;100.0;100980;;;;
2022/08/04 00:24:10;;;;;;;1.9;1.1;;;;;;;25.9;100.0;100970;;;;
2022/08/04 00:25:01;;;;;;;1.9;1.1;;;;;;;25.9;100.0;100970;;;;
2022/08/04 00:26:00;;;;;;;1.9;1.1;;;;;;;25.7;100.0;100970;;;;
2022/08/04 00:27:00;;;;;;;1.9;1.1;;;;;;;25.7;100.0;100970;;;;
2022/08/04 00:28:00;;;;;;;1.9;1.1;;;;;;;25.7;100.0;100970;;;;
2022/08/04 00:29:00;;;;;;;1.9;1.1;;;;;;;25.7;100.0;100970;;;;
2022/08/04 00:30:00;;;;;;;1.9;1.1;;;;;;;25.8;100.0;100970;;;;
2022/08/04 00:31:01;;;;;;;1.9;1.1;;;;;;;25.8;100.0;100970;;;;
2022/08/04 00:32:00;;;;;;;1.9;1.1;;;;;;;25.8;100.0;100970;;;;
2022/08/04 00:33:01;;;;;;;0.1;0.1;;;;;;;25.8;100.0;100970;;;;
2022/08/04 00:34:00;;;;;;;0.1;0.1;;;;;;;25.7;100.0;100970;;;;
2022/08/04 00:35:00;;;;;;;0.1;0.1;;;;;;;25.7;100.0;100970;;;;
2022/08/04 00:36:00;;;;;;;0.1;0.1;;;;;;;25.6;100.0;100970;;;;
2022/08/04 00:37:00;;;;;;;0.1;0.1;;;;;;;25.6;100.0;100970;;;;
2022/08/04 00:38:00;;;;;;;0.1;0.1;;;;;;;25.7;100.0;100970;;;;
2022/08/04 00:39:02;;;;;;;0.1;0.1;;;;;;;25.7;100.0;100970;;;;
2022/08/04 00:40:02;;;;;;;0.1;0.1;;;;;;;25.7;100.0;100960;;;;
2022/08/04 00:41:00;;;;;;;0.1;0.1;;;;;;;25.7;100.0;100960;;;;
2022/08/04 00:42:10;;;;;;;0.1;0.1;;;;;;;25.6;100.0;100960;;;;
2022/08/04 00:43:07;;;;;;;0.1;0.1;;;;;;;25.6;100.0;100960;;;;
2022/08/04 00:44:08;;;;;;;0.1;0.1;;;;;;;25.6;100.0;100960;;;;
2022/08/04 00:45:10;;;;;;;0.1;0.1;;;;;;;25.6;100.0;100960;;;;
2022/08/04 00:46:17;;;;;;;0.1;0.1;;;;;;;25.5;100.0;100950;;;;
2022/08/04 00:47:04;;;;;;;0.1;0.1;;;;;;;25.5;100.0;100950;;;;
2022/08/04 00:48:10;;;;;;;0.1;0.1;;;;;;;25.4;100.0;100950;;;;
2022/08/04 00:49:09;;;;;;;0.1;0.1;;;;;;;25.4;100.0;100950;;;;
2022/08/04 00:50:08;;;;;;;0.1;0.1;;;;;;;25.3;100.0;100950;;;;
2022/08/04 00:51:10;;;;;;;0.1;0.1;;;;;;;25.3;100.0;100950;;;;
2022/08/04 00:52:20;;;;;;;0.1;0.1;;;;;;;25.3;100.0;100950;;;;
2022/08/04 00:53:10;;;;;;;0.5;0.4;;;;;;;25.3;100.0;100950;;;;
2022/08/04 00:54:10;;;;;;;0.5;0.4;;;;;;;25.3;100.0;100950;;;;
2022/08/04 00:55:09;;;;;;;0.5;0.4;;;;;;;25.3;100.0;100950;;;;
2022/08/04 00:56:10;;;;;;;0.5;0.4;;;;;;;25.3;100.0;100950;;;;
2022/08/04 00:57:03;;;;;;;0.5;0.4;;;;;;;25.3;100.0;100950;;;;
2022/08/04 00:58:11;;;;;;;0.5;0.4;;;;;;;25.1;100.0;100950;;;;
2022/08/04 00:59:03;;;;;;;0.5;0.4;;;;;;;25.1;100.0;100950;;;;
2022/08/04 01:00:08;;;;;;;0.5;0.4;;;;;;;25.2;100.0;100950;;;;
2022/08/04 01:01:01;;;;;;;0.5;0.4;;;;;;;25.2;100.0;100950;;;;
2022/08/04 01:02:04;;;;;;;0.5;0.4;;;;;;;25.2;100.0;100950;;;;
2022/08/04 01:03:00;;;;;;;0.5;0.4;;;;;;;25.2;100.0;100950;;;;
2022/08/04 01:04:09;;;;;;;0.5;0.4;;;;;;;25.1;100.0;100950;;;;
2022/08/04 01:05:03;;;;;;;0.5;0.4;;;;;;;25.1;100.0;100950;;;;
2022/08/04 01:06:01;;;;;;;0.5;0.4;;;;;;;25.1;100.0;100940;;;;
2022/08/04 01:07:10;;;;;;;0.5;0.4;;;;;;;25.1;100.0;100940;;;;
2022/08/04 01:08:10;;;;;;;0.5;0.4;;;;;;;25.0;100.0;100940;;;;
2022/08/04 01:09:20;;;;;;;0.5;0.4;;;;;;;25.0;100.0;100940;;;;
2022/08/04 01:10:03;;;;;;;0.5;0.4;;;;;;;25.1;100.0;100940;;;;
2022/08/04 01:11:10;;;;;;;0.5;0.4;;;;;;;25.1;100.0;100940;;;;
2022/08/04 01:12:01;;;;;;;0.5;0.4;;;;;;;25.1;100.0;100940;;;;
2022/08/04 01:13:16;;;;;;;0.3;0.3;;;;;;;25.1;100.0;100940;;;;
2022/08/04 01:14:00;;;;;;;0.3;0.3;;;;;;;24.9;100.0;100940;;;;
2022/08/04 01:15:05;;;;;;;0.3;0.3;;;;;;;24.9;100.0;100940;;;;
2022/08/04 01:16:04;;;;;;;0.3;0.3;;;;;;;24.9;100.0;100930;;;;
2022/08/04 01:17:12;;;;;;;0.3;0.3;;;;;;;24.9;100.0;100930;;;;
2022/08/04 01:18:01;;;;;;;0.3;0.3;;;;;;;24.9;100.0;100930;;;;
2022/08/04 01:19:00;;;;;;;0.3;0.3;;;;;;;24.9;100.0;100930;;;;
2022/08/04 01:20:05;;;;;;;0.3;0.3;;;;;;;24.9;100.0;100930;;;;
2022/08/04 01:21:10;;;;;;;0.3;0.3;;;;;;;24.9;100.0;100930;;;;
2022/08/04 01:22:09;;;;;;;0.3;0.3;;;;;;;24.8;100.0;100930;;;;
2022/08/04 01:23:09;;;;;;;0.3;0.3;;;;;;;24.8;100.0;100930;;;;
2022/08/04 01:24:11;;;;;;;0.3;0.3;;;;;;;24.8;100.0;100930;;;;
2022/08/04 01:25:11;;;;;;;0.3;0.3;;;;;;;24.8;100.0;100930;;;;
2022/08/04 01:26:20;;;;;;;0.3;0.3;;;;;;;24.8;100.0;100920;;;;
2022/08/04 01:27:03;;;;;;;0.3;0.3;;;;;;;24.8;100.0;100920;;;;
2022/08/04 01:28:10;;;;;;;0.3;0.3;;;;;;;24.7;100.0;100920;;;;
2022/08/04 01:29:03;;;;;;;0.3;0.3;;;;;;;24.7;100.0;100920;;;;
2022/08/04 01:30:01;;;;;;;0.3;0.3;;;;;;;24.8;100.0;100920;;;;
2022/08/04 01:31:05;;;;;;;0.3;0.3;;;;;;;24.8;100.0;100920;;;;
2022/08/04 01:32:00;;;;;;;0.3;0.3;;;;;;;24.8;100.0;100920;;;;
2022/08/04 01:33:03;;;;;;;0.5;0.2;;;;;;;24.8;100.0;100920;;;;
2022/08/04 01:34:05;;;;;;;0.5;0.2;;;;;;;24.6;100.0;100920;;;;
2022/08/04 01:35:03;;;;;;;0.5;0.2;;;;;;;24.6;100.0;100920;;;;
2022/08/04 01:36:03;;;;;;;0.5;0.2;;;;;;;24.6;100.0;100920;;;;
2022/08/04 01:37:07;;;;;;;0.5;0.2;;;;;;;24.6;100.0;100920;;;;
2022/08/04 01:38:20;;;;;;;0.5;0.2;;;;;;;24.6;100.0;100910;;;;
2022/08/04 01:39:39;;;;;;;0.5;0.2;;;;;;;24.6;100.0;100910;;;;
2022/08/04 01:40:03;;;;;;;0.5;0.2;;;;;;;24.6;100.0;100910;;;;
2022/08/04 01:41:04;;;;;;;0.5;0.2;;;;;;;24.6;100.0;100910;;;;
2022/08/04 01:42:01;;;;;;;0.5;0.2;;;;;;;24.5;100.0;100910;;;;
2022/08/04 01:43:01;;;;;;;0.5;0.2;;;;;;;24.5;100.0;100910;;;;
2022/08/04 01:44:01;;;;;;;0.5;0.2;;;;;;;24.6;100.0;100910;;;;
2022/08/04 01:45:03;;;;;;;0.5;0.2;;;;;;;24.6;100.0;100910;;;;
2022/08/04 01:46:02;;;;;;;0.5;0.2;;;;;;;24.7;100.0;100910;;;;
2022/08/04 01:47:00;;;;;;;0.5;0.2;;;;;;;24.7;100.0;100910;;;;
2022/08/04 01:48:01;;;;;;;0.5;0.2;;;;;;;24.5;100.0;100910;;;;
2022/08/04 01:49:01;;;;;;;0.5;0.2;;;;;;;24.5;100.0;100910;;;;
2022/08/04 01:50:04;;;;;;;0.5;0.2;;;;;;;24.5;100.0;100910;;;;
2022/08/04 01:51:03;;;;;;;0.5;0.2;;;;;;;24.5;100.0;100910;;;;
2022/08/04 01:52:01;;;;;;;0.5;0.2;;;;;;;24.5;100.0;100910;;;;
2022/08/04 01:53:01;;;;;;;0.2;0.2;;;;;;;24.5;100.0;100910;;;;
2022/08/04 01:54:00;;;;;;;0.2;0.2;;;;;;;24.5;100.0;100910;;;;
2022/08/04 01:55:00;;;;;;;0.2;0.2;;;;;;;24.5;100.0;100910;;;;
2022/08/04 01:56:01;;;;;;;0.2;0.2;;;;;;;24.4;100.0;100910;;;;
2022/08/04 01:57:13;;;;;;;0.2;0.2;;;;;;;24.4;100.0;100910;;;;
2022/08/04 01:58:00;;;;;;;0.2;0.2;;;;;;;24.3;100.0;100910;;;;
2022/08/04 01:59:01;;;;;;;0.2;0.2;;;;;;;24.3;100.0;100910;;;;
2022/08/04 02:00:00;;;;;;;0.2;0.2;;;;;;;24.2;100.0;100900;;;;
2022/08/04 02:01:08;;;;;;;0.2;0.2;;;;;;;24.2;100.0;100900;;;;
2022/08/04 02:02:00;;;;;;;0.2;0.2;;;;;;;24.2;100.0;100900;;;;
2022/08/04 02:03:00;;;;;;;0.2;0.2;;;;;;;24.2;100.0;100900;;;;
2022/08/04 02:04:10;;;;;;;0.2;0.2;;;;;;;24.2;100.0;100900;;;;
2022/08/04 02:05:00;;;;;;;0.2;0.2;;;;;;;24.2;100.0;100900;;;;
2022/08/04 02:06:10;;;;;;;0.2;0.2;;;;;;;24.2;100.0;100900;;;;
2022/08/04 02:07:07;;;;;;;0.2;0.2;;;;;;;24.2;100.0;100900;;;;
2022/08/04 02:08:10;;;;;;;0.2;0.2;;;;;;;24.3;100.0;100900;;;;
2022/08/04 02:09:03;;;;;;;0.2;0.2;;;;;;;24.3;100.0;100900;;;;
2022/08/04 02:10:03;;;;;;;0.2;0.2;;;;;;;24.2;100.0;100890;;;;
2022/08/04 02:11:04;;;;;;;0.2;0.2;;;;;;;24.2;100.0;100890;;;;
2022/08/04 02:12:00;;;;;;;0.2;0.2;;;;;;;24.2;100.0;100900;;;;
2022/08/04 02:13:10;;;;;;;0.1;0.1;;;;;;;24.2;100.0;100900;;;;
2022/08/04 02:14:05;;;;;;;0.1;0.1;;;;;;;24.3;100.0;100900;;;;
2022/08/04 02:15:10;;;;;;;0.1;0.1;;;;;;;24.3;100.0;100900;;;;
2022/08/04 02:16:02;;;;;;;0.1;0.1;;;;;;;24.3;100.0;100900;;;;
2022/08/04 02:17:00;;;;;;;0.1;0.1;;;;;;;24.3;100.0;100900;;;;
2022/08/04 02:18:05;;;;;;;0.1;0.1;;;;;;;24.3;100.0;100890;;;;
2022/08/04 02:19:14;;;;;;;0.1;0.1;;;;;;;24.3;100.0;100890;;;;
2022/08/04 02:20:06;;;;;;;0.1;0.1;;;;;;;24.3;100.0;100890;;;;
2022/08/04 02:21:00;;;;;;;0.1;0.1;;;;;;;24.3;100.0;100890;;;;
2022/08/04 02:22:05;;;;;;;0.1;0.1;;;;;;;24.4;100.0;100890;;;;
2022/08/04 02:23:04;;;;;;;0.1;0.1;;;;;;;24.4;100.0;100890;;;;
2022/08/04 02:24:04;;;;;;;0.1;0.1;;;;;;;24.3;100.0;100890;;;;
2022/08/04 02:25:05;;;;;;;0.1;0.1;;;;;;;24.3;100.0;100890;;;;
2022/08/04 02:26:01;;;;;;;0.1;0.1;;;;;;;24.2;100.0;100880;;;;
2022/08/04 02:27:02;;;;;;;0.1;0.1;;;;;;;24.2;100.0;100880;;;;
2022/08/04 02:28:10;;;;;;;0.1;0.1;;;;;;;24.2;100.0;100880;;;;
2022/08/04 02:29:08;;;;;;;0.1;0.1;;;;;;;24.2;100.0;100880;;;;
2022/08/04 02:30:02;;;;;;;0.1;0.1;;;;;;;24.2;100.0;100880;;;;
2022/08/04 02:31:03;;;;;;;0.1;0.1;;;;;;;24.2;100.0;100880;;;;
2022/08/04 02:32:04;;;;;;;0.1;0.1;;;;;;;24.2;100.0;100880;;;;
2022/08/04 02:33:01;;;;;;;0.3;0.3;;;;;;;24.2;100.0;100880;;;;
2022/08/04 02:34:08;;;;;;;0.3;0.3;;;;;;;24.3;100.0;100880;;;;
2022/08/04 02:35:05;;;;;;;0.3;0.3;;;;;;;24.3;100.0;100880;;;;
2022/08/04 02:36:02;;;;;;;0.3;0.3;;;;;;;24.2;100.0;100880;;;;
2022/08/04 02:37:02;;;;;;;0.3;0.3;;;;;;;24.2;100.0;100880;;;;
2022/08/04 02:38:05;;;;;;;0.3;0.3;;;;;;;24.2;100.0;100880;;;;
2022/08/04 02:39:01;;;;;;;0.3;0.3;;;;;;;24.2;100.0;100880;;;;
2022/08/04 02:40:01;;;;;;;0.3;0.3;;;;;;;24.1;100.0;100880;;;;
2022/08/04 02:41:00;;;;;;;0.3;0.3;;;;;;;24.1;100.0;100880;;;;
2022/08/04 02:42:01;;;;;;;0.3;0.3;;;;;;;24.1;100.0;100880;;;;
2022/08/04 02:43:02;;;;;;;0.3;0.3;;;;;;;24.1;100.0;100880;;;;
2022/08/04 02:44:01;;;;;;;0.3;0.3;;;;;;;24.1;100.0;100880;;;;
2022/08/04 02:45:00;;;;;;;0.3;0.3;;;;;;;24.1;100.0;100880;;;;
2022/08/04 02:46:02;;;;;;;0.3;0.3;;;;;;;24.1;100.0;100870;;;;
2022/08/04 02:47:00;;;;;;;0.3;0.3;;;;;;;24.1;100.0;100870;;;;
2022/08/04 02:48:10;;;;;;;0.3;0.3;;;;;;;24.1;100.0;100870;;;;
2022/08/04 02:49:03;;;;;;;0.3;0.3;;;;;;;24.1;100.0;100870;;;;
2022/08/04 02:50:01;;;;;;;0.3;0.3;;;;;;;24.1;100.0;100870;;;;
2022/08/04 02:51:02;;;;;;;0.3;0.3;;;;;;;24.1;100.0;100870;;;;
2022/08/04 02:52:00;;;;;;;0.3;0.3;;;;;;;24.1;100.0;100870;;;;
2022/08/04 02:53:01;;;;;;;0.5;0.5;;;;;;;24.1;100.0;100870;;;;
2022/08/04 02:54:02;;;;;;;0.5;0.5;;;;;;;24.0;100.0;100870;;;;
2022/08/04 02:55:00;;;;;;;0.5;0.5;;;;;;;24.0;100.0;100870;;;;
2022/08/04 02:56:01;;;;;;;0.5;0.5;;;;;;;24.0;100.0;100870;;;;
2022/08/04 02:57:01;;;;;;;0.5;0.5;;;;;;;24.0;100.0;100870;;;;
2022/08/04 02:58:02;;;;;;;0.5;0.5;;;;;;;24.0;100.0;100870;;;;
2022/08/04 02:59:02;;;;;;;0.5;0.5;;;;;;;24.0;100.0;100870;;;;
2022/08/04 03:00:13;;;;;;;0.5;0.5;;;;;;;24.0;100.0;100870;;;;
2022/08/04 03:01:00;;;;;;;0.5;0.5;;;;;;;24.0;100.0;100870;;;;
2022/08/04 03:02:00;;;;;;;0.5;0.5;;;;;;;23.9;100.0;100860;;;;
2022/08/04 03:03:13;;;;;;;0.5;0.5;;;;;;;23.9;100.0;100860;;;;
2022/08/04 03:04:07;;;;;;;0.5;0.5;;;;;;;23.9;100.0;100860;;;;
2022/08/04 03:05:06;;;;;;;0.5;0.5;;;;;;;23.9;100.0;100860;;;;
2022/08/04 03:06:10;;;;;;;0.5;0.5;;;;;;;23.7;100.0;100860;;;;
2022/08/04 03:07:15;;;;;;;0.5;0.5;;;;;;;23.7;100.0;100860;;;;
2022/08/04 03:08:10;;;;;;;0.5;0.5;;;;;;;23.8;100.0;100870;;;;
2022/08/04 03:09:00;;;;;;;0.5;0.5;;;;;;;23.8;100.0;100870;;;;
2022/08/04 03:10:00;;;;;;;0.5;0.5;;;;;;;23.8;100.0;100860;;;;
2022/08/04 03:11:10;;;;;;;0.5;0.5;;;;;;;23.8;100.0;100860;;;;
2022/08/04 03:12:01;;;;;;;0.5;0.5;;;;;;;23.8;100.0;100860;;;;
2022/08/04 03:13:10;;;;;;;0.9;0.6;;;;;;;23.8;100.0;100860;;;;
2022/08/04 03:14:00;;;;;;;0.9;0.6;;;;;;;23.8;100.0;100860;;;;
2022/08/04 03:15:08;;;;;;;0.9;0.6;;;;;;;23.8;100.0;100860;;;;
2022/08/04 03:16:09;;;;;;;0.9;0.6;;;;;;;23.8;100.0;100860;;;;
2022/08/04 03:17:07;;;;;;;0.9;0.6;;;;;;;23.8;100.0;100860;;;;
2022/08/04 03:18:10;;;;;;;0.9;0.6;;;;;;;23.6;100.0;100860;;;;
2022/08/04 03:19:10;;;;;;;0.9;0.6;;;;;;;23.6;100.0;100860;;;;
2022/08/04 03:20:10;;;;;;;0.9;0.6;;;;;;;23.7;100.0;100860;;;;
2022/08/04 03:21:10;;;;;;;0.9;0.6;;;;;;;23.7;100.0;100860;;;;
2022/08/04 03:22:00;;;;;;;0.9;0.6;;;;;;;23.7;100.0;100860;;;;
2022/08/04 03:23:14;;;;;;;0.9;0.6;;;;;;;23.7;100.0;100860;;;;
2022/08/04 03:24:10;;;;;;;0.9;0.6;;;;;;;23.7;100.0;100850;;;;
2022/08/04 03:25:10;;;;;;;0.9;0.6;;;;;;;23.7;100.0;100850;;;;
2022/08/04 03:26:00;;;;;;;0.9;0.6;;;;;;;23.6;100.0;100850;;;;
2022/08/04 03:27:10;;;;;;;0.9;0.6;;;;;;;23.6;100.0;100850;;;;
2022/08/04 03:28:00;;;;;;;0.9;0.6;;;;;;;23.6;100.0;100850;;;;
2022/08/04 03:29:10;;;;;;;0.9;0.6;;;;;;;23.6;100.0;100850;;;;
2022/08/04 03:30:00;;;;;;;0.9;0.6;;;;;;;23.6;100.0;100850;;;;
2022/08/04 03:31:07;;;;;;;0.9;0.6;;;;;;;23.6;100.0;100850;;;;
2022/08/04 03:32:10;;;;;;;0.9;0.6;;;;;;;23.5;100.0;100850;;;;
2022/08/04 03:33:10;;;;;;;0.1;0.1;;;;;;;23.5;100.0;100850;;;;
2022/08/04 03:34:10;;;;;;;0.1;0.1;;;;;;;23.6;100.0;100850;;;;
2022/08/04 03:35:13;;;;;;;0.1;0.1;;;;;;;23.6;100.0;100850;;;;
2022/08/04 03:36:10;;;;;;;0.1;0.1;;;;;;;23.4;100.0;100840;;;;
2022/08/04 03:37:01;;;;;;;0.1;0.1;;;;;;;23.4;100.0;100840;;;;
2022/08/04 03:38:10;;;;;;;0.1;0.1;;;;;;;23.5;100.0;100840;;;;
2022/08/04 03:39:01;;;;;;;0.1;0.1;;;;;;;23.5;100.0;100840;;;;
2022/08/04 03:40:00;;;;;;;0.1;0.1;;;;;;;23.5;100.0;100840;;;;
2022/08/04 03:41:10;;;;;;;0.1;0.1;;;;;;;23.5;100.0;100840;;;;
2022/08/04 03:42:08;;;;;;;0.1;0.1;;;;;;;23.5;100.0;100840;;;;
2022/08/04 03:43:20;;;;;;;0.1;0.1;;;;;;;23.5;100.0;100840;;;;
2022/08/04 03:44:01;;;;;;;0.1;0.1;;;;;;;23.5;100.0;100840;;;;
2022/08/04 03:45:20;;;;;;;0.1;0.1;;;;;;;23.5;100.0;100840;;;;
2022/08/04 03:46:00;;;;;;;0.1;0.1;;;;;;;23.5;100.0;100840;;;;
2022/08/04 03:47:07;;;;;;;0.1;0.1;;;;;;;23.5;100.0;100840;;;;
2022/08/04 03:48:07;;;;;;;0.1;0.1;;;;;;;23.4;100.0;100840;;;;
2022/08/04 03:49:00;;;;;;;0.1;0.1;;;;;;;23.4;100.0;100840;;;;
2022/08/04 03:50:10;;;;;;;0.1;0.1;;;;;;;23.5;100.0;100840;;;;
2022/08/04 03:53:10;;;;;;;0.1;0.1;;;;;;;23.4;100.0;100850;;;;
2022/08/04 03:54:10;;;;;;;0.1;0.1;;;;;;;23.4;100.0;100850;;;;
2022/08/04 03:55:10;;;;;;;0.1;0.1;;;;;;;23.4;100.0;100850;;;;
2022/08/04 03:56:10;;;;;;;0.1;0.1;;;;;;;23.5;100.0;100850;;;;
2022/08/04 03:57:10;;;;;;;0.1;0.1;;;;;;;23.5;100.0;100850;;;;
2022/08/04 03:58:10;;;;;;;0.1;0.1;;;;;;;23.4;100.0;100850;;;;
2022/08/04 03:59:10;;;;;;;0.1;0.1;;;;;;;23.4;100.0;100850;;;;
2022/08/04 04:00:10;;;;;;;0.1;0.1;;;;;;;23.5;100.0;100850;;;;
2022/08/04 04:01:03;;;;;;;0.1;0.1;;;;;;;23.5;100.0;100850;;;;
2022/08/04 04:02:10;;;;;;;0.1;0.1;;;;;;;23.4;100.0;100840;;;;
2022/08/04 04:03:10;;;;;;;0.1;0.1;;;;;;;23.4;100.0;100840;;;;
2022/08/04 04:04:00;;;;;;;0.1;0.1;;;;;;;23.4;100.0;100830;;;;
2022/08/04 04:05:10;;;;;;;0.1;0.1;;;;;;;23.4;100.0;100830;;;;
2022/08/04 04:06:15;;;;;;;0.1;0.1;;;;;;;23.2;100.0;100830;;;;
2022/08/04 04:07:14;;;;;;;0.1;0.1;;;;;;;23.2;100.0;100830;;;;
2022/08/04 04:08:19;;;;;;;0.1;0.1;;;;;;;23.3;100.0;100830;;;;
2022/08/04 04:09:20;;;;;;;0.1;0.1;;;;;;;23.3;100.0;100830;;;;
2022/08/04 04:10:07;;;;;;;0.1;0.1;;;;;;;23.3;100.0;100830;;;;
2022/08/04 04:11:10;;;;;;;0.1;0.1;;;;;;;23.3;100.0;100830;;;;
2022/08/04 04:12:03;;;;;;;0.1;0.1;;;;;;;23.2;100.0;100850;;;;
2022/08/04 04:13:06;;;;;;;0.2;0.2;;;;;;;23.2;100.0;100850;;;;
2022/08/04 04:14:10;;;;;;;0.2;0.2;;;;;;;23.3;100.0;100860;;;;
2022/08/04 04:15:00;;;;;;;0.2;0.2;;;;;;;23.3;100.0;100860;;;;
2022/08/04 04:16:11;;;;;;;0.2;0.2;;;;;;;23.3;100.0;100870;;;;
2022/08/04 04:17:07;;;;;;;0.2;0.2;;;;;;;23.3;100.0;100870;;;;
2022/08/04 04:18:10;;;;;;;0.2;0.2;;;;;;;23.3;100.0;100870;;;;
2022/08/04 04:19:01;;;;;;;0.2;0.2;;;;;;;23.3;100.0;100870;;;;
2022/08/04 04:20:10;;;;;;;0.2;0.2;;;;;;;23.2;100.0;100880;;;;
2022/08/04 04:21:10;;;;;;;0.2;0.2;;;;;;;23.2;100.0;100880;;;;
2022/08/04 04:22:11;;;;;;;0.2;0.2;;;;;;;23.3;100.0;100870;;;;
2022/08/04 04:23:11;;;;;;;0.2;0.2;;;;;;;23.3;100.0;100870;;;;
2022/08/04 04:24:05;;;;;;;0.2;0.2;;;;;;;23.2;100.0;100870;;;;
2022/08/04 04:25:10;;;;;;;0.2;0.2;;;;;;;23.2;100.0;100870;;;;
2022/08/04 04:26:06;;;;;;;0.2;0.2;;;;;;;23.2;100.0;100880;;;;
2022/08/04 04:27:07;;;;;;;0.2;0.2;;;;;;;23.2;100.0;100880;;;;
2022/08/04 04:28:13;;;;;;;0.2;0.2;;;;;;;23.2;100.0;100870;;;;
2022/08/04 04:29:03;;;;;;;0.2;0.2;;;;;;;23.2;100.0;100870;;;;
2022/08/04 04:30:03;;;;;;;0.2;0.2;;;;;;;23.3;100.0;100880;;;;
2022/08/04 04:31:02;;;;;;;0.2;0.2;;;;;;;23.3;100.0;100880;;;;
2022/08/04 04:32:07;;;;;;;0.2;0.2;;;;;;;23.2;100.0;100870;;;;
2022/08/04 04:33:01;;;;;;;0.7;0.5;;;;;;;23.2;100.0;100870;;;;
2022/08/04 04:34:10;;;;;;;0.7;0.5;;;;;;;23.3;100.0;100880;;;;
2022/08/04 04:35:11;;;;;;;0.7;0.5;;;;;;;23.3;100.0;100880;;;;
2022/08/04 04:36:07;;;;;;;0.7;0.5;;;;;;;23.3;100.0;100880;;;;
2022/08/04 04:37:10;;;;;;;0.7;0.5;;;;;;;23.3;100.0;100880;;;;
2022/08/04 04:38:10;;;;;;;0.7;0.5;;;;;;;23.2;100.0;100890;;;;
2022/08/04 04:39:00;;;;;;;0.7;0.5;;;;;;;23.2;100.0;100890;;;;
2022/08/04 04:40:10;;;;;;;0.7;0.5;;;;;;;23.2;100.0;100890;;;;
2022/08/04 04:41:01;;;;;;;0.7;0.5;;;;;;;23.2;100.0;100890;;;;
2022/08/04 04:42:10;;;;;;;0.7;0.5;;;;;;;23.3;100.0;100890;;;;
2022/08/04 04:43:10;;;;;;;0.7;0.5;;;;;;;23.3;100.0;100890;;;;
2022/08/04 04:44:00;;;;;;;0.7;0.5;;;;;;;23.3;100.0;100900;;;;
2022/08/04 04:45:10;;;;;;;0.7;0.5;;;;;;;23.3;100.0;100900;;;;
2022/08/04 04:46:15;;;;;;;0.7;0.5;;;;;;;23.4;100.0;100900;;;;
2022/08/04 04:47:08;;;;;;;0.7;0.5;;;;;;;23.4;100.0;100900;;;;
2022/08/04 04:48:10;;;;;;;0.7;0.5;;;;;;;23.3;100.0;100900;;;;
2022/08/04 04:49:07;;;;;;;0.7;0.5;;;;;;;23.3;100.0;100900;;;;
2022/08/04 04:50:08;;;;;;;0.7;0.5;;;;;;;23.4;100.0;100900;;;;
2022/08/04 04:51:10;;;;;;;0.7;0.5;;;;;;;23.4;100.0;100900;;;;
2022/08/04 04:52:10;;;;;;;0.7;0.5;;;;;;;23.4;100.0;100900;;;;
2022/08/04 04:53:10;;;;;;;0.8;0.8;;;;;;;23.4;100.0;100900;;;;
2022/08/04 04:54:01;;;;;;;0.8;0.8;;;;;;;23.5;100.0;100900;;;;
2022/08/04 04:55:09;;;;;;;0.8;0.8;;;;;;;23.5;100.0;100900;;;;
2022/08/04 04:56:08;;;;;;;0.8;0.8;;;;;;;23.4;100.0;100900;;;;
2022/08/04 04:57:10;;;;;;;0.8;0.8;;;;;;;23.4;100.0;100900;;;;
2022/08/04 04:58:00;;;;;;;0.8;0.8;;;;;;;23.5;100.0;100900;;;;
2022/08/04 04:59:01;;;;;;;0.8;0.8;;;;;;;23.5;100.0;100900;;;;
2022/08/04 05:00:03;;;;;;;0.8;0.8;;;;;;;23.6;100.0;100890;;;;
2022/08/04 05:01:10;;;;;;;0.8;0.8;;;;;;;23.6;100.0;100890;;;;
2022/08/04 05:02:00;;;;;;;0.8;0.8;;;;;;;23.6;100.0;100890;;;;
2022/08/04 05:03:09;;;;;;;0.8;0.8;;;;;;;23.6;100.0;100890;;;;
2022/08/04 05:04:10;;;;;;;0.8;0.8;;;;;;;23.7;100.0;100890;;;;
2022/08/04 05:05:00;;;;;;;0.8;0.8;;;;;;;23.7;100.0;100890;;;;
2022/08/04 05:06:10;;;;;;;0.8;0.8;;;;;;;23.7;100.0;100890;;;;
2022/08/04 05:07:10;;;;;;;0.8;0.8;;;;;;;23.7;100.0;100890;;;;
2022/08/04 05:08:20;;;;;;;0.8;0.8;;;;;;;23.8;100.0;100900;;;;
2022/08/04 05:09:06;;;;;;;0.8;0.8;;;;;;;23.8;100.0;100900;;;;
2022/08/04 05:10:10;;;;;;;0.8;0.8;;;;;;;23.8;100.0;100900;;;;
2022/08/04 05:11:07;;;;;;;0.8;0.8;;;;;;;23.8;100.0;100900;;;;
2022/08/04 05:12:20;;;;;;;0.5;0.5;;;;;;;23.8;100.0;100900;;;;
2022/08/04 05:13:10;;;;;;;0.5;0.5;;;;;;;23.8;100.0;100900;;;;
2022/08/04 05:14:12;;;;;;;0.5;0.5;;;;;;;23.9;100.0;100900;;;;
2022/08/04 05:15:02;;;;;;;0.5;0.5;;;;;;;23.9;100.0;100900;;;;
2022/08/04 05:33:03;;;;;;;0.7;0.6;;;;;;;24.3;100.0;100900;;;;
2022/08/04 05:34:06;;;;;;;0.7;0.6;;;;;;;24.3;100.0;100900;;;;
2022/08/04 05:35:03;;;;;;;0.7;0.6;;;;;;;24.3;100.0;100900;;;;
2022/08/04 05:36:14;;;;;;;0.7;0.6;;;;;;;24.3;100.0;100910;;;;
2022/08/04 05:37:02;;;;;;;0.7;0.6;;;;;;;24.3;100.0;100910;;;;
2022/08/04 05:38:02;;;;;;;0.7;0.6;;;;;;;24.4;100.0;100910;;;;
2022/08/04 05:39:01;;;;;;;0.7;0.6;;;;;;;24.4;100.0;100910;;;;
2022/08/04 05:40:03;;;;;;;0.7;0.6;;;;;;;24.5;100.0;100900;;;;
2022/08/04 05:41:01;;;;;;;0.7;0.6;;;;;;;24.5;100.0;100900;;;;
2022/08/04 05:42:04;;;;;;;0.7;0.6;;;;;;;24.5;100.0;100910;;;;
2022/08/04 05:43:00;;;;;;;0.7;0.6;;;;;;;24.5;100.0;100910;;;;
2022/08/04 05:44:01;;;;;;;0.7;0.6;;;;;;;24.6;100.0;100910;;;;
2022/08/04 05:45:01;;;;;;;0.7;0.6;;;;;;;24.6;100.0;100910;;;;
2022/08/04 05:46:00;;;;;;;0.7;0.6;;;;;;;24.6;100.0;100910;;;;
2022/08/04 05:47:02;;;;;;;0.7;0.6;;;;;;;24.6;100.0;100910;;;;
2022/08/04 05:48:01;;;;;;;0.7;0.6;;;;;;;24.7;100.0;100910;;;;
2022/08/04 05:49:01;;;;;;;0.7;0.6;;;;;;;24.7;100.0;100910;;;;
2022/08/04 05:50:03;;;;;;;0.7;0.6;;;;;;;24.7;100.0;100910;;;;
2022/08/04 05:51:01;;;;;;;0.7;0.6;;;;;;;24.7;100.0;100910;;;;
2022/08/04 05:52:01;;;;;;;0.7;0.6;;;;;;;24.8;100.0;100910;;;;
2022/08/04 05:53:01;;;;;;;0.1;0.1;;;;;;;24.8;100.0;100910;;;;
2022/08/04 05:54:01;;;;;;;0.1;0.1;;;;;;;24.9;100.0;100910;;;;
2022/08/04 05:55:00;;;;;;;0.1;0.1;;;;;;;24.9;100.0;100910;;;;
2022/08/04 05:56:01;;;;;;;0.1;0.1;;;;;;;24.9;100.0;100910;;;;
2022/08/04 05:57:03;;;;;;;0.1;0.1;;;;;;;24.9;100.0;100910;;;;
2022/08/04 05:58:00;;;;;;;0.1;0.1;;;;;;;24.9;100.0;100910;;;;
2022/08/04 05:59:01;;;;;;;0.1;0.1;;;;;;;24.9;100.0;100910;;;;
2022/08/04 06:00:11;;;;;;;0.1;0.1;;;;;;;25.0;100.0;100900;;;;
2022/08/04 06:01:00;;;;;;;0.1;0.1;;;;;;;25.0;100.0;100900;;;;
2022/08/04 06:02:01;;;;;;;0.1;0.1;;;;;;;24.9;100.0;100900;;;;
2022/08/04 06:03:00;;;;;;;0.1;0.1;;;;;;;24.9;100.0;100900;;;;
2022/08/04 06:04:01;;;;;;;0.1;0.1;;;;;;;25.0;100.0;100900;;;;
2022/08/04 06:05:01;;;;;;;0.1;0.1;;;;;;;25.0;100.0;100900;;;;
2022/08/04 06:06:00;;;;;;;0.1;0.1;;;;;;;25.0;100.0;100900;;;;
2022/08/04 06:07:00;;;;;;;0.1;0.1;;;;;;;25.0;100.0;100900;;;;
2022/08/04 06:08:10;;;;;;;0.1;0.1;;;;;;;25.0;100.0;100890;;;;
2022/08/04 06:09:00;;;;;;;0.1;0.1;;;;;;;25.0;100.0;100890;;;;
2022/08/04 06:10:00;;;;;;;0.1;0.1;;;;;;;25.1;100.0;100890;;;;
2022/08/04 06:11:02;;;;;;;0.1;0.1;;;;;;;25.1;100.0;100890;;;;
2022/08/04 06:12:04;;;;;;;0.1;0.1;;;;;;;25.0;100.0;100890;;;;
2022/08/04 06:13:03;;;;;;;0.2;0.2;;;;;;;25.0;100.0;100890;;;;
2022/08/04 06:14:03;;;;;;;0.2;0.2;;;;;;;25.1;100.0;100890;;;;
2022/08/04 06:15:00;;;;;;;0.2;0.2;;;;;;;25.1;100.0;100890;;;;
2022/08/04 06:16:01;;;;;;;0.2;0.2;;;;;;;25.2;100.0;100890;;;;
2022/08/04 06:17:03;;;;;;;0.2;0.2;;;;;;;25.2;100.0;100890;;;;
2022/08/04 06:18:11;;;;;;;0.2;0.2;;;;;;;25.2;100.0;100890;;;;
2022/08/04 06:19:13;;;;;;;0.2;0.2;;;;;;;25.2;100.0;100890;;;;
2022/08/04 06:20:11;;;;;;;0.2;0.2;;;;;;;25.4;100.0;100890;;;;
2022/08/04 06:21:03;;;;;;;0.2;0.2;;;;;;;25.4;100.0;100890;;;;
2022/08/04 06:22:01;;;;;;;0.2;0.2;;;;;;;25.4;100.0;100890;;;;
2022/08/04 06:23:01;;;;;;;0.2;0.2;;;;;;;25.4;100.0;100890;;;;
2022/08/04 06:24:04;;;;;;;0.2;0.2;;;;;;;25.4;100.0;100890;;;;
2022/08/04 06:25:01;;;;;;;0.2;0.2;;;;;;;25.4;100.0;100890;;;;
2022/08/04 06:26:00;;;;;;;0.2;0.2;;;;;;;25.3;100.0;100890;;;;
2022/08/04 06:27:02;;;;;;;0.2;0.2;;;;;;;25.3;100.0;100890;;;;
2022/08/04 06:28:00;;;;;;;0.2;0.2;;;;;;;25.5;100.0;100890;;;;
2022/08/04 06:29:01;;;;;;;0.2;0.2;;;;;;;25.5;100.0;100890;;;;
2022/08/04 06:30:01;;;;;;;0.2;0.2;;;;;;;25.5;100.0;100890;;;;
2022/08/04 06:31:10;;;;;;;0.2;0.2;;;;;;;25.5;100.0;100890;;;;
2022/08/04 06:33:22;;;;;;;0.1;0.1;;;;;;;25.6;100.0;100890;;;;
2022/08/04 06:34:01;;;;;;;0.1;0.1;;;;;;;25.6;100.0;100890;;;;
2022/08/04 06:35:00;;;;;;;0.1;0.1;;;;;;;25.6;100.0;100890;;;;
2022/08/04 06:36:01;;;;;;;0.1;0.1;;;;;;;25.8;100.0;100890;;;;
2022/08/04 06:37:00;;;;;;;0.1;0.1;;;;;;;25.8;100.0;100890;;;;
2022/08/04 06:38:02;;;;;;;0.1;0.1;;;;;;;25.9;100.0;100890;;;;
2022/08/04 06:39:01;;;;;;;0.1;0.1;;;;;;;25.9;100.0;100890;;;;
2022/08/04 06:40:01;;;;;;;0.1;0.1;;;;;;;25.9;100.0;100890;;;;
2022/08/04 06:41:02;;;;;;;0.1;0.1;;;;;;;25.9;100.0;100890;;;;
2022/08/04 06:42:10;;;;;;;0.1;0.1;;;;;;;26.0;100.0;100890;;;;